This is the latest recevied weather packets stored in our database for station/object KFVE. If no packets are shown the sender has not sent any weather packets the latest 10 day(s).
| Time | Temp. | Humidity | Pressure | Rain* | Wind** | Luminosity | Snow |
|---|---|---|---|---|---|---|---|
| 1778004212 | 18.89° C | 48% | 1000.3 hPa | - | - | - | - |
| 1778003611 | 20° C | 40% | 1000.7 hPa | - | - | - | - |
| 1778002409 | 20° C | 40% | 1000.7 hPa | - | - | - | - |
| 1778001808 | 20° C | 40% | 1000.7 hPa | - | - | - | - |
| 1778001214 | 20° C | 40% | 1000.7 hPa | - | - | - | - |
| 1778000612 | 20° C | 40% | 1000.7 hPa | - | - | - | - |
| 1777998809 | 20.56° C | 37% | 1000.7 hPa | - | - | - | - |
| 1777998213 | 20.56° C | 37% | 1000.7 hPa | - | - | - | - |
| 1777997610 | 20.56° C | 37% | 1000.7 hPa | - | - | - | - |
| 1777995209 | 18.89° C | 42% | 1002 hPa | - | - | - | - |
| 1777994611 | 18.89° C | 42% | 1002 hPa | - | - | - | - |
| 1777994010 | 18.89° C | 42% | 1002 hPa | - | - | - | - |
| 1777993408 | 18.89° C | 42% | 1002 hPa | - | - | - | - |
| 1777991607 | 15.56° C | 51% | 1002.4 hPa | - | - | - | - |
| 1777991010 | 15.56° C | 51% | 1002.4 hPa | - | - | - | - |
| 1777990408 | 15.56° C | 51% | 1002.4 hPa | - | - | - | - |
| 1777989808 | 15.56° C | 51% | 1002.4 hPa | - | - | - | - |
| 1777988008 | 11.67° C | 62% | 1003 hPa | - | - | - | - |
| 1777987410 | 11.67° C | 62% | 1003 hPa | - | - | - | - |
| 1777986807 | 11.67° C | 62% | 1003 hPa | - | - | - | - |
| 1777984408 | 7.78° C | 81% | 1003.4 hPa | - | - | - | - |
| 1777983805 | 7.78° C | 81% | 1003.4 hPa | - | - | - | - |
| 1777982006 | 5.56° C | 86% | 1004.1 hPa | - | - | - | - |
| 1777980809 | 5.56° C | 86% | 1004.1 hPa | - | - | - | - |
| 1777980211 | 5.56° C | 86% | 1004.1 hPa | - | - | - | - |
* Rain since midnight (hover to see other rain measurements)
** Current wind speed in m/s (hover to see current wind gust speed)